ホーチミン の空港の天気 - METARとTAF

タンソンニャット国際空港 (ホーチミン) ( VVTS / SGN ) - ベトナム ホーチミン市
飛行場実況気象(Metar)
観測時間05/25 17:00 +07 (05/25 10:00 UTC)
風向・風速西南西 4m/s
視程10km以上
天気現象
全天の4割程度の雲 雲底高度 460m
全天の4割程度の雲 雲底高度 1520m
気温29℃
湿度84%
気圧1005hPa
METARVVTS 251000Z 24008KT 200V270 9999 SCT015 SCT050 29/26 Q1005 NOSIG
過去の天気等 Google飛行場航空写真 Wunderground天気予報

過去48時間のMETAR

飛行場予報(TAF)
発表時間: 5/25 12:00 +07 (5/25 05:00 UTC)
予報対象時間: 25日13時 +07 ~ 26日19時 +07
風向・風速西南西 4m/s
視程10km以上
全天の4割程度の雲 雲底高度 460m
25日13時 +07 ~ 25日18時 +07 に一時的に
風向・風速西南西 8m/s 瞬間風速 14m/s
視程2,000m
天気現象強い雷雨
全天の8割程度の雲 雲底高度 400m
全天の4割程度の積乱雲 雲底高度 460m
26日13時 +07 ~ 26日17時 +07 に一時的に
視程3,000m
天気現象雷雨
全天の8割程度の雲 雲底高度 400m
全天の4割程度の積乱雲 雲底高度 460m
TAF VVTS 250500Z 2506/2612 25008KT 9999 SCT015
TEMPO 2506/2511 25015G28KT 2000 +TSRA BKN013 SCT015CB
TEMPO 2606/2610 3000 TSRA BKN013 SCT015CB